createdAt,value
2019-02-21T00:01:20.501Z,22.45
2019-02-21T00:03:50.636Z,22.05
2019-02-21T00:06:20.010Z,20.72
2019-02-21T00:08:49.455Z,22.67
2019-02-21T00:11:19.302Z,21.23
2019-02-21T00:13:48.722Z,22.30
2019-02-21T00:16:18.223Z,21.97
2019-02-21T00:18:47.968Z,22.17
2019-02-21T00:21:17.538Z,22.17
2019-02-21T00:23:47.057Z,22.60
2019-02-21T00:26:16.462Z,23.05
2019-02-21T00:28:45.891Z,22.40
2019-02-21T00:31:17.110Z,20.60
2019-02-21T00:33:46.816Z,22.60
2019-02-21T00:36:16.329Z,20.57
2019-02-21T00:38:45.664Z,20.65
2019-02-21T00:41:17.000Z,22.42
2019-02-21T00:43:46.367Z,20.72
2019-02-21T00:46:17.753Z,20.45
2019-02-21T00:48:47.324Z,20.32
2019-02-21T00:51:18.124Z,21.33
2019-02-21T00:53:51.742Z,22.02
2019-02-21T00:56:21.118Z,21.15
2019-02-21T00:58:52.281Z,21.37
2019-02-21T01:01:22.319Z,21.02
2019-02-21T01:03:51.760Z,22.85
2019-02-21T01:06:21.400Z,21.48
2019-02-21T01:08:50.786Z,22.37
2019-02-21T01:11:20.251Z,23.10
2019-02-21T01:13:49.657Z,24.65
2019-02-21T01:16:19.556Z,26.07
2019-02-21T01:18:48.974Z,26.07
2019-02-21T01:21:18.693Z,25.32
2019-02-21T01:23:54.950Z,24.72
2019-02-21T01:26:24.476Z,25.15
2019-02-21T01:28:53.855Z,22.82
2019-02-21T01:31:23.597Z,23.50
2019-02-21T01:33:57.546Z,23.67
2019-02-21T01:36:28.679Z,22.75
2019-02-21T01:38:58.158Z,23.00
2019-02-21T01:41:30.938Z,22.27
2019-02-21T01:44:00.549Z,22.07
2019-02-21T01:46:31.486Z,21.48
2019-02-21T01:49:01.408Z,21.27
2019-02-21T01:51:34.864Z,20.75
2019-02-21T01:54:07.438Z,21.60
2019-02-21T01:56:39.796Z,21.55
2019-02-21T01:59:09.348Z,21.52
2019-02-21T02:01:39.059Z,21.30
2019-02-21T02:04:14.527Z,21.17
2019-02-21T02:06:43.919Z,22.02
2019-02-21T02:09:16.401Z,19.92
2019-02-21T02:11:47.715Z,19.82
2019-02-21T02:14:22.608Z,20.05
2019-02-21T02:16:54.836Z,20.02
2019-02-21T02:19:44.948Z,20.97
2019-02-21T02:22:14.365Z,20.52
2019-02-21T02:24:46.641Z,20.37
2019-02-21T02:27:18.959Z,21.93
2019-02-21T02:29:48.325Z,21.20
2019-02-21T02:32:18.003Z,20.60
2019-02-21T02:34:49.013Z,19.67
2019-02-21T02:37:18.437Z,19.35
2019-02-21T02:39:52.529Z,20.10
2019-02-21T02:42:21.893Z,19.20
2019-02-21T02:44:51.403Z,19.65
2019-02-21T02:47:21.040Z,19.00
2019-02-21T02:49:53.622Z,21.62
2019-02-21T02:52:24.204Z,22.37
2019-02-21T02:54:53.759Z,19.85
2019-02-21T02:57:23.145Z,19.15
2019-02-21T03:00:13.042Z,21.48
2019-02-21T03:02:42.620Z,20.90
2019-02-21T03:05:12.141Z,21.17
2019-02-21T03:07:43.841Z,21.73
2019-02-21T03:10:14.467Z,21.68
2019-02-21T03:12:48.868Z,21.87
2019-02-21T03:15:18.479Z,20.88
2019-02-21T03:17:47.880Z,22.17
2019-02-21T03:20:17.283Z,21.30
2019-02-21T03:22:46.681Z,24.95
2019-02-21T03:25:16.192Z,25.32
2019-02-21T03:27:46.024Z,26.57
2019-02-21T03:30:15.440Z,25.17
2019-02-21T03:32:45.297Z,22.00
2019-02-21T03:35:14.746Z,24.65
2019-02-21T03:37:46.245Z,21.60
2019-02-21T03:40:15.982Z,21.23
2019-02-21T03:42:45.407Z,22.27
2019-02-21T03:45:15.355Z,21.25
2019-02-21T03:47:44.760Z,21.57
2019-02-21T03:50:14.598Z,20.68
2019-02-21T03:52:44.018Z,21.68
2019-02-21T03:55:13.483Z,21.52
2019-02-21T03:57:43.057Z,22.50
2019-02-21T04:00:12.503Z,24.92
2019-02-21T04:02:42.001Z,24.45
2019-02-21T04:05:11.394Z,22.67
2019-02-21T04:07:41.160Z,31.02
2019-02-21T04:10:10.502Z,28.52
2019-02-21T04:12:40.273Z,25.65
2019-02-21T04:15:11.279Z,26.02
2019-02-21T04:17:40.997Z,24.80
2019-02-21T04:20:10.346Z,26.65
2019-02-21T04:22:39.823Z,22.52
2019-02-21T04:25:09.260Z,20.43
2019-02-21T04:27:38.863Z,21.33
2019-02-21T04:30:08.333Z,21.55
2019-02-21T04:32:37.949Z,21.33
2019-02-21T04:35:07.453Z,21.95
2019-02-21T04:37:37.061Z,22.05
2019-02-21T04:40:07.139Z,20.90
2019-02-21T04:42:36.528Z,20.82
2019-02-21T04:45:06.577Z,20.97
2019-02-21T04:47:35.949Z,22.58
2019-02-21T04:50:05.805Z,21.62
2019-02-21T04:52:35.255Z,20.80
2019-02-21T04:55:04.627Z,21.82
2019-02-21T04:57:34.481Z,26.30
2019-02-21T05:00:04.219Z,23.02
2019-02-21T05:02:33.981Z,21.15
2019-02-21T05:05:03.449Z,23.05
2019-02-21T05:07:33.322Z,24.95
2019-02-21T05:10:02.741Z,25.43
2019-02-21T05:12:32.121Z,24.18
2019-02-21T05:15:02.109Z,24.27
2019-02-21T05:17:31.845Z,26.60
2019-02-21T05:20:01.410Z,26.57
2019-02-21T05:22:31.047Z,27.45
2019-02-21T05:25:01.538Z,27.32
2019-02-21T05:27:34.586Z,24.30
2019-02-21T05:30:05.329Z,25.35
2019-02-21T05:32:42.216Z,27.73
2019-02-21T05:35:17.232Z,22.50
2019-02-21T05:38:23.624Z,22.80
2019-02-21T05:41:14.788Z,23.25
2019-02-21T05:44:09.356Z,25.62
2019-02-21T05:47:00.614Z,25.15
2019-02-21T05:49:46.942Z,20.75
2019-02-21T05:52:37.267Z,23.02
2019-02-21T05:55:12.642Z,21.87
2019-02-21T05:58:08.586Z,24.15
2019-02-21T06:00:49.361Z,21.87
2019-02-21T06:03:46.864Z,23.10
2019-02-21T06:06:53.504Z,20.68
2019-02-21T06:09:35.917Z,19.00
2019-02-21T06:12:14.656Z,19.37
2019-02-21T06:14:50.069Z,20.50
2019-02-21T06:17:34.748Z,19.67
2019-02-21T06:20:22.423Z,18.73
2019-02-21T06:23:19.995Z,20.88
2019-02-21T06:25:59.343Z,18.20
2019-02-21T06:28:36.353Z,18.77
2019-02-21T06:31:09.505Z,19.65
2019-02-21T06:33:39.179Z,19.62
2019-02-21T06:36:08.613Z,21.12
2019-02-21T06:38:39.087Z,21.15
2019-02-21T06:41:08.755Z,22.55
2019-02-21T06:43:38.343Z,22.20
2019-02-21T06:46:07.953Z,21.40
2019-02-21T06:48:37.617Z,19.05
2019-02-21T06:51:07.848Z,21.35
2019-02-21T06:53:38.984Z,22.02
2019-02-21T06:56:08.572Z,19.25
2019-02-21T06:58:38.120Z,19.92
2019-02-21T07:01:07.583Z,18.62
2019-02-21T07:03:37.076Z,19.25
2019-02-21T07:06:06.839Z,18.85
2019-02-21T07:08:36.370Z,17.37
2019-02-21T07:11:06.682Z,19.42
2019-02-21T07:13:36.634Z,18.85
2019-02-21T07:16:06.142Z,17.95
2019-02-21T07:18:35.646Z,17.57
2019-02-21T07:21:05.305Z,18.62
2019-02-21T07:23:43.110Z,22.85
2019-02-21T07:26:14.868Z,22.93
2019-02-21T07:28:44.460Z,23.55
2019-02-21T07:31:14.006Z,24.20
2019-02-21T07:33:43.410Z,23.67
2019-02-21T07:36:13.127Z,22.65
2019-02-21T07:38:42.588Z,22.07
2019-02-21T07:41:12.092Z,24.18
2019-02-21T07:43:41.503Z,20.97
2019-02-21T07:46:11.307Z,21.87
2019-02-21T07:48:40.778Z,21.00
2019-02-21T07:51:10.170Z,21.85
2019-02-21T07:53:39.720Z,19.73
2019-02-21T07:56:09.451Z,18.25
2019-02-21T07:58:39.692Z,17.87
2019-02-21T08:01:09.410Z,18.52
2019-02-21T08:03:44.306Z,16.95
2019-02-21T08:06:10.862Z,18.23
2019-02-21T08:08:40.373Z,18.65
2019-02-21T08:11:10.232Z,19.98
2019-02-21T08:13:42.749Z,19.50
2019-02-21T08:16:12.686Z,20.97
2019-02-21T08:18:42.118Z,22.70
2019-02-21T08:21:14.865Z,23.18
2019-02-21T08:23:50.471Z,21.20
2019-02-21T08:26:15.734Z,21.02
2019-02-21T08:28:45.337Z,23.70
2019-02-21T08:31:14.838Z,20.10
2019-02-21T08:33:58.720Z,19.30
2019-02-21T08:36:27.036Z,20.35
2019-02-21T08:38:56.401Z,18.35
2019-02-21T08:41:25.970Z,17.87
2019-02-21T08:43:57.437Z,18.02
2019-02-21T08:46:26.865Z,19.12
2019-02-21T08:48:56.844Z,17.75
2019-02-21T08:51:26.287Z,17.42
2019-02-21T08:53:55.707Z,17.60
2019-02-21T08:56:25.365Z,17.75
2019-02-21T08:58:54.787Z,17.70
2019-02-21T09:01:24.353Z,17.07
2019-02-21T09:04:09.897Z,17.12
2019-02-21T09:06:30.925Z,18.55
2019-02-21T09:09:00.381Z,16.70
2019-02-21T09:11:29.929Z,20.00
2019-02-21T09:14:03.013Z,17.90
2019-02-21T09:16:32.332Z,18.57
2019-02-21T09:19:01.709Z,20.52
2019-02-21T09:21:31.407Z,19.20
2019-02-21T09:24:00.845Z,19.55
2019-02-21T09:26:30.459Z,19.12
2019-02-21T09:28:59.990Z,20.27
2019-02-21T09:31:29.342Z,19.65
2019-02-21T09:33:58.796Z,22.45
2019-02-21T09:36:28.258Z,21.45
2019-02-21T09:38:57.775Z,20.05
2019-02-21T09:41:28.718Z,18.50
2019-02-21T09:43:58.334Z,22.45
2019-02-21T09:46:27.766Z,22.48
2019-02-21T09:48:57.262Z,23.87
2019-02-21T09:51:27.206Z,22.35
2019-02-21T09:53:56.893Z,25.05
2019-02-21T09:56:30.668Z,26.20
2019-02-21T09:58:58.693Z,25.30
2019-02-21T10:01:28.099Z,24.92
2019-02-21T10:03:57.768Z,28.52
2019-02-21T10:06:27.241Z,24.10
2019-02-21T10:08:56.691Z,34.90
2019-02-21T10:11:26.107Z,31.62
2019-02-21T10:13:55.627Z,31.68
2019-02-21T10:16:27.172Z,30.45
2019-02-21T10:18:57.418Z,26.93
2019-02-21T10:21:27.098Z,27.98
2019-02-21T10:23:56.851Z,29.87
2019-02-21T10:26:26.627Z,29.20
2019-02-21T10:28:56.085Z,29.55
2019-02-21T10:31:25.495Z,27.85
2019-02-21T10:33:54.821Z,30.37
2019-02-21T10:36:24.570Z,29.52
2019-02-21T10:38:53.958Z,28.02
2019-02-21T10:41:23.329Z,28.75
2019-02-21T10:43:52.979Z,26.20
2019-02-21T10:46:22.665Z,19.37
2019-02-21T10:48:52.070Z,20.20
2019-02-21T10:51:21.434Z,19.65
2019-02-21T10:53:51.143Z,18.77
2019-02-21T10:56:20.557Z,19.82
2019-02-21T10:58:49.914Z,19.05
2019-02-21T11:01:19.289Z,17.73
2019-02-21T11:03:48.736Z,19.82
2019-02-21T11:06:20.084Z,20.08
2019-02-21T11:08:49.687Z,24.20
2019-02-21T11:11:21.269Z,23.85
2019-02-21T11:13:51.857Z,25.70
2019-02-21T11:16:21.385Z,25.77
2019-02-21T11:18:51.038Z,25.00
2019-02-21T11:21:20.664Z,25.85
2019-02-21T11:23:50.045Z,25.68
2019-02-21T11:26:22.391Z,25.75
2019-02-21T11:28:51.997Z,26.10
2019-02-21T11:31:21.604Z,24.10
2019-02-21T11:33:51.142Z,23.87
2019-02-21T11:36:20.878Z,22.60
2019-02-21T11:38:50.547Z,20.60
2019-02-21T11:41:21.737Z,18.77
2019-02-21T11:43:51.184Z,22.40
2019-02-21T11:46:20.550Z,25.72
2019-02-21T11:48:50.000Z,27.95
2019-02-21T11:51:22.939Z,26.68
2019-02-21T11:53:52.585Z,28.17
2019-02-21T11:56:21.991Z,27.10
2019-02-21T11:58:51.384Z,26.57
2019-02-21T12:01:20.980Z,27.13
2019-02-21T12:03:50.724Z,22.90
2019-02-21T12:06:20.205Z,23.67
2019-02-21T12:08:49.636Z,25.35
2019-02-21T12:11:19.294Z,23.85
2019-02-21T12:13:48.860Z,23.80
2019-02-21T12:16:18.243Z,26.15
2019-02-21T12:18:48.201Z,24.82
2019-02-21T12:21:17.618Z,23.80
2019-02-21T12:23:47.612Z,26.12
2019-02-21T12:26:16.981Z,23.75
2019-02-21T12:28:46.869Z,25.60
2019-02-21T12:31:16.268Z,24.85
2019-02-21T12:33:45.640Z,22.30
2019-02-21T12:36:15.441Z,24.82
2019-02-21T12:38:45.012Z,23.77
2019-02-21T12:41:14.973Z,22.77
2019-02-21T12:43:44.320Z,23.52
2019-02-21T12:46:13.887Z,23.18
2019-02-21T12:48:43.422Z,24.90
2019-02-21T12:51:12.851Z,22.80
2019-02-21T12:53:42.197Z,22.82
2019-02-21T12:56:11.577Z,25.05
2019-02-21T12:58:41.253Z,24.20
2019-02-21T13:01:10.835Z,26.30
2019-02-21T13:03:40.806Z,25.52
2019-02-21T13:06:10.197Z,26.73
2019-02-21T13:08:39.560Z,26.20
2019-02-21T13:11:09.311Z,27.30
2019-02-21T13:13:39.124Z,24.07
2019-02-21T13:16:10.718Z,24.43
2019-02-21T13:18:40.221Z,26.42
2019-02-21T13:21:09.701Z,24.98
2019-02-21T13:23:43.444Z,27.27
2019-02-21T13:26:12.892Z,24.55
2019-02-21T13:28:42.413Z,24.15
2019-02-21T13:31:14.370Z,25.80
2019-02-21T13:33:43.839Z,25.62
2019-02-21T13:36:13.589Z,25.20
2019-02-21T13:38:43.009Z,24.35
2019-02-21T13:41:12.422Z,23.55
2019-02-21T13:43:42.013Z,24.00
2019-02-21T13:46:11.393Z,23.15
2019-02-21T13:48:41.278Z,23.77
2019-02-21T13:51:10.797Z,25.12
2019-02-21T13:53:40.381Z,24.32
2019-02-21T13:56:11.176Z,24.40
2019-02-21T13:58:40.911Z,25.08
2019-02-21T14:01:10.339Z,23.47
2019-02-21T14:03:39.889Z,22.48
2019-02-21T14:06:09.302Z,22.32
2019-02-21T14:08:38.887Z,24.80
2019-02-21T14:11:08.277Z,22.42
2019-02-21T14:13:37.643Z,22.85
2019-02-21T14:16:07.079Z,24.47
2019-02-21T14:18:36.984Z,24.00
2019-02-21T14:21:06.737Z,22.45
2019-02-21T14:23:36.523Z,23.15
2019-02-21T14:26:07.946Z,22.10
2019-02-21T14:28:37.592Z,20.77
2019-02-21T14:31:07.541Z,21.20
2019-02-21T14:33:37.254Z,21.62
2019-02-21T14:36:15.239Z,20.88
2019-02-21T14:38:38.029Z,19.05
2019-02-21T14:41:07.817Z,18.98
2019-02-21T14:43:37.208Z,19.02
2019-02-21T14:46:07.015Z,18.50
2019-02-21T14:48:36.609Z,18.37
2019-02-21T14:51:06.162Z,18.65
2019-02-21T14:53:35.773Z,18.32
2019-02-21T14:56:08.813Z,18.55
2019-02-21T14:58:38.403Z,18.85
2019-02-21T15:01:08.468Z,18.20
2019-02-21T15:03:38.521Z,18.02
2019-02-21T15:06:08.114Z,18.37
2019-02-21T15:08:37.896Z,16.65
2019-02-21T15:11:07.524Z,17.20
2019-02-21T15:13:37.187Z,17.32
2019-02-21T15:16:06.677Z,16.87
2019-02-21T15:18:36.046Z,16.97
2019-02-21T15:21:06.018Z,16.27
2019-02-21T15:23:37.092Z,15.50
2019-02-21T15:26:06.464Z,14.80
2019-02-21T15:28:36.018Z,14.85
2019-02-21T15:31:06.030Z,15.78
2019-02-21T15:33:35.641Z,13.45
2019-02-21T15:36:05.503Z,14.43
2019-02-21T15:38:39.974Z,12.88
2019-02-21T15:41:09.526Z,12.63
2019-02-21T15:43:39.222Z,12.78
2019-02-21T15:46:09.015Z,12.90
2019-02-21T15:48:38.957Z,11.88
2019-02-21T15:51:08.804Z,11.20
2019-02-21T15:53:38.753Z,11.38
2019-02-21T15:56:08.543Z,10.93
2019-02-21T15:58:38.070Z,12.18
2019-02-21T16:01:07.810Z,12.18
2019-02-21T16:03:37.459Z,12.25
2019-02-21T16:06:09.040Z,13.53
2019-02-21T16:08:38.599Z,12.58
2019-02-21T16:11:08.036Z,13.25
2019-02-21T16:13:37.608Z,12.55
2019-02-21T16:16:07.303Z,12.82
2019-02-21T16:18:36.836Z,13.70
2019-02-21T16:21:06.869Z,13.40
2019-02-21T16:23:36.488Z,15.28
2019-02-21T16:26:05.861Z,13.80
2019-02-21T16:28:35.486Z,14.70
2019-02-21T16:31:05.492Z,14.93
2019-02-21T16:33:35.053Z,14.18
2019-02-21T16:36:04.873Z,15.15
2019-02-21T16:38:34.649Z,14.35
2019-02-21T16:41:04.248Z,14.70
2019-02-21T16:43:33.977Z,14.43
2019-02-21T16:46:07.878Z,13.25
2019-02-21T16:48:35.643Z,14.38
2019-02-21T16:51:06.535Z,14.98
2019-02-21T16:53:36.175Z,14.15
2019-02-21T16:56:05.972Z,15.08
2019-02-21T16:58:35.794Z,13.95
2019-02-21T17:01:05.786Z,14.13
2019-02-21T17:03:35.395Z,15.63
2019-02-21T17:06:05.453Z,14.25
2019-02-21T17:08:35.547Z,14.55
2019-02-21T17:11:05.386Z,14.85
2019-02-21T17:13:35.507Z,15.03
2019-02-21T17:16:05.360Z,14.03
2019-02-21T17:18:35.409Z,13.53
2019-02-21T17:21:05.100Z,14.00
2019-02-21T17:23:35.076Z,12.35
2019-02-21T17:26:04.540Z,12.95
2019-02-21T17:28:34.706Z,12.95
2019-02-21T17:31:07.534Z,13.50
2019-02-21T17:33:37.180Z,12.98
2019-02-21T17:36:06.853Z,13.60
2019-02-21T17:38:36.494Z,13.45
2019-02-21T17:41:06.410Z,13.62
2019-02-21T17:43:36.473Z,13.62
2019-02-21T17:46:06.276Z,14.03
2019-02-21T17:48:36.183Z,14.98
2019-02-21T17:51:06.381Z,14.63
2019-02-21T17:53:36.189Z,13.58
2019-02-21T17:56:06.106Z,14.15
2019-02-21T17:58:36.050Z,14.00
2019-02-21T18:01:06.470Z,14.60
2019-02-21T18:03:36.665Z,15.45
2019-02-21T18:06:07.130Z,15.43
2019-02-21T18:08:38.462Z,14.93
2019-02-21T18:11:12.447Z,14.60
2019-02-21T18:13:42.005Z,15.55
2019-02-21T18:16:12.703Z,14.78
2019-02-21T18:18:43.128Z,15.23
2019-02-21T18:21:13.791Z,14.23
2019-02-21T18:23:44.007Z,13.93
2019-02-21T18:26:18.002Z,12.95
2019-02-21T18:28:48.755Z,14.28
2019-02-21T18:31:19.472Z,15.28
2019-02-21T18:33:49.918Z,14.45
2019-02-21T18:36:20.340Z,14.13
2019-02-21T18:38:50.995Z,15.20
2019-02-21T18:41:21.537Z,15.60
2019-02-21T18:43:52.189Z,15.72
2019-02-21T22:49:54.915Z,13.80
2019-02-21T22:52:24.339Z,13.78
2019-02-21T22:54:54.370Z,13.95
2019-02-21T22:57:23.902Z,15.28
2019-02-21T22:59:53.512Z,14.80
2019-02-21T23:04:07.185Z,15.38
2019-02-21T23:11:54.397Z,14.33
2019-02-21T23:14:24.433Z,15.10
2019-02-21T23:16:54.428Z,14.58
2019-02-21T23:19:58.173Z,14.38
2019-02-21T23:22:28.797Z,14.73
2019-02-21T23:25:15.032Z,14.38
2019-02-21T23:29:19.061Z,15.15
2019-02-21T23:31:48.791Z,15.55
2019-02-21T23:42:44.153Z,8.25
